createdAt,value
2024-01-19T00:00:36.850Z,100.00
2024-01-19T00:03:40.109Z,100.00
2024-01-19T00:06:42.732Z,100.00
2024-01-19T00:09:45.834Z,100.00
2024-01-19T00:12:48.677Z,100.00
2024-01-19T00:15:53.486Z,100.00
2024-01-19T00:18:56.063Z,100.00
2024-01-19T00:21:59.053Z,100.00
2024-01-19T00:25:01.638Z,100.00
2024-01-19T00:28:04.794Z,100.00
2024-01-19T00:31:07.852Z,100.00
2024-01-19T00:34:10.769Z,100.00
2024-01-19T00:37:13.411Z,100.00
2024-01-19T00:40:16.856Z,100.00
2024-01-19T00:43:19.518Z,100.00
2024-01-19T00:46:23.088Z,100.00
2024-01-19T00:49:25.991Z,100.00
2024-01-19T00:52:28.868Z,100.00
2024-01-19T00:55:31.569Z,100.00
2024-01-19T00:58:34.454Z,100.00
2024-01-19T01:01:37.122Z,100.00
2024-01-19T01:04:40.199Z,100.00
2024-01-19T01:07:42.822Z,100.00
2024-01-19T01:10:46.557Z,100.00
2024-01-19T01:13:49.250Z,100.00
2024-01-19T01:16:52.080Z,100.00
2024-01-19T01:19:54.721Z,100.00
2024-01-19T01:22:57.647Z,100.00
2024-01-19T01:26:00.286Z,100.00
2024-01-19T01:29:03.153Z,100.00
2024-01-19T01:32:05.874Z,100.00
2024-01-19T01:35:09.123Z,100.00
2024-01-19T01:38:11.814Z,100.00
2024-01-19T01:41:14.805Z,100.00
2024-01-19T01:44:17.540Z,100.00
2024-01-19T01:47:20.531Z,100.00
2024-01-19T01:50:24.416Z,100.00
2024-01-19T01:53:27.620Z,100.00
2024-01-19T01:56:30.759Z,100.00
2024-01-19T01:59:34.422Z,100.00
2024-01-19T02:02:38.314Z,100.00
2024-01-19T02:05:41.517Z,100.00
2024-01-19T02:08:44.683Z,100.00
2024-01-19T02:11:47.349Z,100.00
2024-01-19T02:14:50.422Z,100.00
2024-01-19T02:17:54.271Z,100.00
2024-01-19T02:20:57.505Z,100.00
2024-01-19T02:24:04.856Z,100.00
2024-01-19T02:27:10.177Z,100.00
2024-01-19T02:30:13.350Z,100.00
2024-01-19T02:33:16.448Z,100.00
2024-01-19T02:36:19.265Z,100.00
2024-01-19T02:39:22.230Z,100.00
2024-01-19T02:42:24.927Z,100.00
2024-01-19T02:45:27.785Z,100.00
2024-01-19T02:48:30.754Z,100.00
2024-01-19T02:51:33.884Z,100.00
2024-01-19T02:54:36.498Z,100.00
2024-01-19T02:57:39.515Z,100.00
2024-01-19T03:00:42.177Z,100.00
2024-01-19T03:03:45.038Z,100.00
2024-01-19T03:06:47.709Z,100.00
2024-01-19T03:09:50.765Z,100.00
2024-01-19T03:12:53.362Z,100.00
2024-01-19T03:15:59.890Z,100.00
2024-01-19T03:19:06.364Z,100.00
2024-01-19T03:22:09.423Z,100.00
2024-01-19T03:25:12.138Z,100.00
2024-01-19T03:28:15.153Z,100.00
2024-01-19T03:31:17.809Z,100.00
2024-01-19T03:34:20.879Z,100.00
2024-01-19T03:37:23.521Z,100.00
2024-01-19T03:40:26.521Z,100.00
2024-01-19T03:43:29.079Z,100.00
2024-01-19T03:46:31.949Z,100.00
2024-01-19T03:49:34.584Z,100.00
2024-01-19T03:52:38.799Z,100.00
2024-01-19T03:55:41.472Z,100.00
2024-01-19T03:58:44.381Z,100.00
2024-01-19T04:01:47.062Z,100.00
2024-01-19T04:04:50.025Z,100.00
2024-01-19T04:07:52.700Z,100.00
2024-01-19T04:10:55.763Z,100.00
2024-01-19T04:13:58.430Z,100.00
2024-01-19T04:17:01.314Z,100.00
2024-01-19T04:20:06.074Z,100.00
2024-01-19T04:23:09.093Z,100.00
2024-01-19T04:26:12.214Z,100.00
2024-01-19T04:29:16.255Z,100.00
2024-01-19T04:32:18.942Z,100.00
2024-01-19T04:35:21.871Z,100.00
2024-01-19T04:38:24.488Z,100.00
2024-01-19T04:41:27.467Z,100.00
2024-01-19T04:44:30.137Z,100.00
2024-01-19T04:47:33.084Z,100.00
2024-01-19T04:50:35.856Z,100.00
2024-01-19T04:53:38.922Z,100.00
2024-01-19T04:56:43.398Z,100.00
2024-01-19T04:59:47.495Z,100.00
2024-01-19T05:02:50.746Z,100.00
2024-01-19T05:05:54.020Z,100.00
2024-01-19T05:08:57.354Z,100.00
2024-01-19T05:12:00.513Z,100.00
2024-01-19T05:15:03.544Z,100.00
2024-01-19T05:18:06.653Z,100.00
2024-01-19T05:21:09.523Z,100.00
2024-01-19T05:24:12.462Z,100.00
2024-01-19T05:27:15.191Z,100.00
2024-01-19T05:30:18.433Z,100.00
2024-01-19T05:33:21.236Z,100.00
2024-01-19T05:36:24.782Z,100.00
2024-01-19T05:39:27.421Z,100.00
2024-01-19T05:42:30.461Z,100.00
2024-01-19T05:45:33.019Z,100.00
2024-01-19T05:48:36.003Z,100.00
2024-01-19T05:51:38.752Z,100.00
2024-01-19T05:54:41.710Z,100.00
2024-01-19T05:57:44.411Z,100.00
2024-01-19T06:00:47.534Z,100.00
2024-01-19T06:03:50.736Z,100.00
2024-01-19T06:06:53.522Z,100.00
2024-01-19T06:09:56.459Z,100.00
2024-01-19T06:12:59.052Z,100.00
2024-01-19T06:16:02.317Z,100.00
2024-01-19T06:19:05.014Z,100.00
2024-01-19T06:22:08.073Z,100.00
2024-01-19T06:25:11.176Z,100.00
2024-01-19T06:28:14.189Z,100.00
2024-01-19T06:31:16.765Z,100.00
2024-01-19T06:34:19.964Z,100.00
2024-01-19T06:37:22.748Z,100.00
2024-01-19T06:40:25.739Z,100.00
2024-01-19T06:43:28.466Z,100.00
2024-01-19T06:46:31.437Z,100.00
2024-01-19T06:49:34.180Z,100.00
2024-01-19T06:52:37.112Z,100.00
2024-01-19T06:55:39.653Z,100.00
2024-01-19T06:58:43.794Z,100.00
2024-01-19T07:01:46.448Z,100.00
2024-01-19T07:04:50.893Z,100.00
2024-01-19T07:07:56.488Z,100.00
2024-01-19T07:11:00.135Z,100.00
2024-01-19T07:14:03.096Z,100.00
2024-01-19T07:17:06.118Z,100.00
2024-01-19T07:20:09.412Z,100.00
2024-01-19T07:23:12.624Z,100.00
2024-01-19T07:26:19.205Z,100.00
2024-01-19T07:29:22.133Z,100.00
2024-01-19T07:32:26.326Z,100.00
2024-01-19T07:35:29.528Z,100.00
2024-01-19T07:38:32.306Z,100.00
2024-01-19T07:41:35.325Z,100.00
2024-01-19T07:44:37.915Z,100.00
2024-01-19T07:47:40.899Z,100.00
2024-01-19T07:50:43.555Z,100.00
2024-01-19T07:53:46.696Z,100.00
2024-01-19T07:56:49.501Z,100.00
2024-01-19T07:59:52.585Z,100.00
2024-01-19T08:02:55.853Z,100.00
2024-01-19T08:05:59.264Z,100.00
2024-01-19T08:09:02.145Z,100.00
2024-01-19T08:12:07.326Z,100.00
2024-01-19T08:15:10.718Z,100.00
2024-01-19T08:18:14.040Z,100.00
2024-01-19T08:21:17.614Z,100.00
2024-01-19T08:24:20.785Z,100.00
2024-01-19T08:27:23.412Z,100.00
2024-01-19T08:30:26.338Z,100.00
2024-01-19T08:33:29.297Z,100.00
2024-01-19T08:36:32.733Z,100.00
2024-01-19T08:39:36.008Z,100.00
2024-01-19T08:42:39.530Z,100.00
2024-01-19T08:45:42.238Z,100.00
2024-01-19T08:48:47.061Z,100.00
2024-01-19T08:51:51.915Z,100.00
2024-01-19T08:54:54.911Z,100.00
2024-01-19T08:57:57.743Z,100.00
2024-01-19T09:01:03.107Z,100.00
2024-01-19T09:04:26.121Z,100.00
2024-01-19T09:07:29.326Z,100.00
2024-01-19T09:10:32.089Z,100.00
2024-01-19T09:13:35.025Z,100.00
2024-01-19T09:16:37.815Z,100.00
2024-01-19T09:19:40.851Z,100.00
2024-01-19T09:22:44.216Z,100.00
2024-01-19T09:25:47.119Z,100.00
2024-01-19T09:28:50.430Z,100.00
2024-01-19T09:31:53.271Z,100.00
2024-01-19T09:34:55.923Z,100.00
2024-01-19T09:37:58.961Z,100.00
2024-01-19T09:41:22.230Z,100.00
2024-01-19T09:44:35.010Z,100.00
2024-01-19T09:47:56.664Z,100.00
2024-01-19T09:51:05.753Z,100.00
2024-01-19T09:54:10.335Z,100.00
2024-01-19T09:57:13.319Z,100.00
2024-01-19T10:00:18.881Z,100.00
2024-01-19T10:03:23.793Z,100.00
2024-01-19T10:06:26.862Z,100.00
2024-01-19T10:09:30.510Z,100.00
2024-01-19T10:12:35.887Z,100.00
2024-01-19T10:15:39.161Z,100.00
2024-01-19T10:18:43.391Z,100.00
2024-01-19T10:21:46.620Z,100.00
2024-01-19T10:25:04.737Z,100.00
2024-01-19T10:28:07.861Z,100.00
2024-01-19T10:31:28.576Z,100.00
2024-01-19T10:34:31.585Z,100.00
2024-01-19T10:37:34.649Z,100.00
2024-01-19T10:40:37.964Z,100.00
2024-01-19T10:43:40.730Z,100.00
2024-01-19T10:46:44.510Z,100.00
2024-01-19T10:49:47.220Z,100.00
2024-01-19T10:52:54.640Z,100.00
2024-01-19T10:55:57.245Z,100.00
2024-01-19T10:59:14.761Z,100.00
2024-01-19T11:02:18.375Z,100.00
2024-01-19T11:05:21.653Z,100.00
2024-01-19T11:08:24.391Z,100.00
2024-01-19T11:11:35.160Z,100.00
2024-01-19T11:14:41.101Z,100.00
2024-01-19T11:17:44.348Z,100.00
2024-01-19T11:20:49.094Z,100.00
2024-01-19T11:23:53.602Z,100.00
2024-01-19T11:27:18.269Z,100.00
2024-01-19T11:30:33.323Z,100.00
2024-01-19T11:33:36.788Z,100.00
2024-01-19T11:36:49.501Z,100.00
2024-01-19T11:39:52.155Z,100.00
2024-01-19T11:42:55.792Z,100.00
2024-01-19T11:45:58.468Z,100.00
2024-01-19T11:49:03.718Z,100.00
2024-01-19T11:52:26.385Z,100.00
2024-01-19T11:55:29.373Z,100.00
2024-01-19T11:58:42.132Z,100.00
2024-01-19T12:01:45.121Z,100.00
2024-01-19T12:04:53.422Z,100.00
2024-01-19T12:08:02.637Z,100.00
2024-01-19T12:11:07.930Z,100.00
2024-01-19T12:14:14.222Z,100.00
2024-01-19T12:17:17.239Z,100.00
2024-01-19T12:20:20.605Z,100.00
2024-01-19T12:23:25.372Z,100.00
2024-01-19T12:26:28.451Z,100.00
2024-01-19T12:29:37.476Z,100.00
2024-01-19T12:32:40.918Z,100.00
2024-01-19T12:35:44.269Z,100.00
2024-01-19T12:38:47.144Z,100.00
2024-01-19T12:42:08.005Z,100.00
2024-01-19T12:45:14.635Z,100.00
2024-01-19T12:48:25.653Z,100.00
2024-01-19T12:51:32.355Z,100.00
2024-01-19T12:54:45.401Z,100.00
2024-01-19T12:57:51.137Z,100.00
2024-01-19T13:00:54.360Z,100.00
2024-01-19T13:03:58.038Z,100.00
2024-01-19T13:07:01.128Z,100.00
2024-01-19T13:10:04.715Z,100.00
2024-01-19T13:13:19.972Z,100.00
2024-01-19T13:16:22.533Z,100.00
2024-01-19T13:19:25.551Z,100.00
2024-01-19T13:22:28.471Z,100.00
2024-01-19T13:25:31.511Z,100.00
2024-01-19T13:28:34.320Z,100.00
2024-01-19T13:31:37.495Z,100.00
2024-01-19T13:34:40.246Z,100.00
2024-01-19T13:37:45.062Z,100.00
2024-01-19T13:40:47.765Z,100.00
2024-01-19T13:43:50.679Z,100.00
2024-01-19T13:46:53.408Z,100.00
2024-01-19T13:50:02.253Z,100.00
2024-01-19T13:53:05.790Z,100.00
2024-01-19T13:56:09.896Z,100.00
2024-01-19T13:59:12.617Z,100.00
2024-01-19T14:02:18.941Z,100.00
2024-01-19T14:05:21.990Z,100.00
2024-01-19T14:08:25.570Z,100.00
2024-01-19T14:11:28.761Z,100.00
2024-01-19T14:14:32.943Z,100.00
2024-01-19T14:17:35.950Z,100.00
2024-01-19T14:20:38.615Z,100.00
2024-01-19T14:23:41.562Z,100.00
2024-01-19T14:26:44.557Z,100.00
2024-01-19T14:29:49.218Z,100.00
2024-01-19T14:32:54.770Z,100.00
2024-01-19T14:35:57.861Z,100.00
2024-01-19T14:39:00.508Z,100.00
2024-01-19T14:42:03.731Z,100.00
2024-01-19T14:45:08.427Z,100.00
2024-01-19T14:48:13.130Z,100.00
2024-01-19T14:51:16.611Z,100.00
2024-01-19T14:54:20.095Z,100.00
2024-01-19T14:57:23.427Z,100.00
2024-01-19T15:00:26.317Z,100.00
2024-01-19T15:03:28.958Z,100.00
2024-01-19T15:06:32.018Z,100.00
2024-01-19T15:09:34.730Z,100.00
2024-01-19T15:12:37.902Z,100.00
2024-01-19T15:15:40.437Z,100.00
2024-01-19T15:18:43.656Z,100.00
2024-01-19T15:21:47.809Z,100.00
2024-01-19T15:24:51.826Z,100.00
2024-01-19T15:27:55.472Z,100.00
2024-01-19T15:30:59.417Z,100.00
2024-01-19T15:34:02.929Z,100.00
2024-01-19T15:37:08.672Z,100.00
2024-01-19T15:40:16.814Z,100.00
2024-01-19T15:43:20.657Z,100.00
2024-01-19T15:46:25.780Z,100.00
2024-01-19T15:49:29.910Z,100.00
2024-01-19T15:52:33.547Z,100.00
2024-01-19T15:55:37.541Z,100.00
2024-01-19T15:58:40.509Z,100.00
2024-01-19T16:01:44.393Z,98.68
2024-01-19T16:04:47.633Z,99.69
2024-01-19T16:07:50.373Z,97.19
2024-01-19T16:10:53.607Z,94.16
2024-01-19T16:13:56.246Z,96.90
2024-01-19T16:17:01.073Z,96.04
2024-01-19T16:20:04.589Z,94.47
2024-01-19T16:23:07.782Z,93.73
2024-01-19T16:26:10.630Z,93.03
2024-01-19T16:29:13.539Z,94.49
2024-01-19T16:32:16.310Z,95.37
2024-01-19T16:35:27.459Z,95.57
2024-01-19T16:38:34.932Z,94.19
2024-01-19T16:41:42.822Z,98.07
2024-01-19T16:44:46.250Z,95.35
2024-01-19T16:47:49.958Z,99.97
2024-01-19T16:50:53.965Z,99.16
2024-01-19T16:53:57.670Z,100.00
2024-01-19T16:57:03.561Z,99.36
2024-01-19T17:00:07.924Z,100.00
2024-01-19T17:03:13.628Z,100.00
2024-01-19T17:06:17.552Z,100.00
2024-01-19T17:09:24.448Z,99.38
2024-01-19T17:12:27.952Z,100.00
2024-01-19T17:15:31.191Z,100.00
2024-01-19T17:18:34.362Z,100.00
2024-01-19T17:21:40.851Z,100.00
2024-01-19T17:24:44.121Z,100.00
2024-01-19T17:27:46.819Z,100.00
2024-01-19T17:30:50.101Z,100.00
2024-01-19T17:34:05.264Z,100.00
2024-01-19T17:37:12.449Z,100.00
2024-01-19T17:40:15.206Z,100.00
2024-01-19T17:43:19.088Z,100.00
2024-01-19T17:46:22.292Z,98.39
2024-01-19T17:49:25.406Z,97.20
2024-01-19T17:52:40.647Z,96.69
2024-01-19T17:55:43.841Z,96.79
2024-01-19T17:58:46.559Z,97.35
2024-01-19T18:01:49.537Z,97.93
2024-01-19T18:04:52.928Z,96.49
2024-01-19T18:07:55.826Z,95.49
2024-01-19T18:10:58.958Z,96.32
2024-01-19T18:14:02.664Z,96.08
2024-01-19T18:17:05.862Z,96.91
2024-01-19T18:20:09.869Z,96.50
2024-01-19T18:23:13.034Z,94.48
2024-01-19T18:26:16.082Z,97.37
2024-01-19T18:29:20.966Z,98.33
2024-01-19T18:32:23.876Z,99.70
2024-01-19T18:35:27.013Z,100.00
2024-01-19T18:38:29.665Z,100.00
2024-01-19T18:41:32.598Z,100.00
2024-01-19T18:44:35.884Z,100.00
2024-01-19T18:47:41.505Z,100.00
2024-01-19T18:50:44.256Z,100.00
2024-01-19T18:53:47.780Z,100.00
2024-01-19T18:56:50.788Z,100.00
2024-01-19T18:59:54.793Z,100.00
2024-01-19T19:02:58.201Z,100.00
2024-01-19T19:06:01.449Z,100.00
2024-01-19T19:09:04.764Z,100.00
2024-01-19T19:12:08.072Z,100.00
2024-01-19T19:15:10.808Z,100.00
2024-01-19T19:18:13.984Z,100.00
2024-01-19T19:21:21.351Z,100.00
2024-01-19T19:24:25.804Z,100.00
2024-01-19T19:27:28.500Z,100.00
2024-01-19T19:30:33.247Z,100.00
2024-01-19T19:33:37.470Z,100.00
2024-01-19T19:36:40.576Z,100.00
2024-01-19T19:39:43.331Z,100.00
2024-01-19T19:42:46.523Z,100.00
2024-01-19T19:45:51.870Z,100.00
2024-01-19T19:48:58.120Z,100.00
2024-01-19T19:52:01.646Z,100.00
2024-01-19T19:55:05.125Z,100.00
2024-01-19T19:58:07.792Z,100.00
2024-01-19T20:01:14.000Z,100.00
2024-01-19T20:04:17.060Z,100.00
2024-01-19T20:07:19.682Z,100.00
2024-01-19T20:10:22.876Z,100.00
2024-01-19T20:13:25.622Z,100.00
2024-01-19T20:16:28.627Z,100.00
2024-01-19T20:19:31.392Z,100.00
2024-01-19T20:22:42.549Z,100.00
2024-01-19T20:25:45.370Z,100.00
2024-01-19T20:28:48.592Z,100.00
2024-01-19T20:31:51.776Z,100.00
2024-01-19T20:34:54.947Z,100.00
2024-01-19T20:37:58.045Z,100.00
2024-01-19T20:41:01.281Z,100.00
2024-01-19T20:44:04.414Z,100.00
2024-01-19T20:47:07.436Z,100.00
2024-01-19T20:50:10.435Z,100.00
2024-01-19T20:53:13.583Z,100.00
2024-01-19T20:56:16.742Z,100.00
2024-01-19T20:59:20.239Z,100.00
2024-01-19T21:02:23.078Z,100.00
2024-01-19T21:05:26.519Z,100.00
2024-01-19T21:08:30.029Z,100.00
2024-01-19T21:11:33.196Z,100.00
2024-01-19T21:14:37.149Z,100.00
2024-01-19T21:17:41.162Z,100.00
2024-01-19T21:20:44.079Z,100.00
2024-01-19T21:23:48.388Z,100.00
2024-01-19T21:26:51.031Z,100.00
2024-01-19T21:29:55.019Z,100.00
2024-01-19T21:32:57.959Z,100.00
2024-01-19T21:36:00.888Z,100.00
2024-01-19T21:39:03.787Z,100.00
2024-01-19T21:42:07.175Z,100.00
2024-01-19T21:45:09.935Z,100.00
2024-01-19T21:48:13.555Z,100.00
2024-01-19T21:51:17.373Z,100.00
2024-01-19T21:54:20.434Z,100.00
2024-01-19T21:57:27.462Z,100.00
2024-01-19T22:00:30.472Z,100.00
2024-01-19T22:03:34.586Z,100.00
2024-01-19T22:06:37.444Z,99.53
2024-01-19T22:09:43.014Z,99.15
2024-01-19T22:12:47.030Z,99.77
2024-01-19T22:15:50.012Z,100.00
2024-01-19T22:18:52.821Z,100.00
2024-01-19T22:21:55.754Z,100.00
2024-01-19T22:24:58.472Z,100.00
2024-01-19T22:28:01.360Z,100.00
2024-01-19T22:31:05.059Z,100.00
2024-01-19T22:34:12.121Z,100.00
2024-01-19T22:37:16.613Z,100.00
2024-01-19T22:40:19.966Z,100.00
2024-01-19T22:43:22.780Z,100.00
2024-01-19T22:46:26.642Z,100.00
2024-01-19T22:49:30.195Z,100.00
2024-01-19T22:52:33.294Z,100.00
2024-01-19T22:55:36.444Z,100.00
2024-01-19T22:58:39.535Z,100.00
2024-01-19T23:01:45.058Z,100.00
2024-01-19T23:04:48.204Z,100.00
2024-01-19T23:07:51.901Z,100.00
2024-01-19T23:10:54.903Z,100.00
2024-01-19T23:13:57.594Z,100.00
2024-01-19T23:17:00.678Z,100.00
2024-01-19T23:20:04.962Z,100.00
2024-01-19T23:23:08.103Z,100.00
2024-01-19T23:26:11.153Z,100.00
2024-01-19T23:29:14.285Z,100.00
2024-01-19T23:32:17.582Z,100.00
2024-01-19T23:35:20.936Z,100.00
2024-01-19T23:38:23.734Z,100.00
2024-01-19T23:41:26.935Z,100.00
2024-01-19T23:44:29.644Z,100.00
2024-01-19T23:47:32.562Z,100.00
2024-01-19T23:50:38.270Z,100.00
2024-01-19T23:53:41.075Z,100.00
2024-01-19T23:56:44.047Z,100.00
2024-01-19T23:59:47.229Z,100.00
